createdAt,value
2022-10-09T00:00:03.412Z,12.02
2022-10-09T00:01:03.401Z,12.02
2022-10-09T00:02:03.467Z,11.93
2022-10-09T00:03:03.378Z,11.96
2022-10-09T00:04:03.383Z,11.99
2022-10-09T00:05:03.453Z,11.93
2022-10-09T00:06:03.348Z,11.93
2022-10-09T00:07:03.334Z,11.93
2022-10-09T00:08:03.345Z,11.93
2022-10-09T00:09:03.322Z,11.99
2022-10-09T00:10:03.304Z,11.97
2022-10-09T00:11:03.291Z,11.93
2022-10-09T00:12:03.281Z,11.93
2022-10-09T00:13:03.269Z,11.86
2022-10-09T00:14:07.143Z,11.85
2022-10-09T00:15:03.251Z,11.94
2022-10-09T00:16:03.235Z,11.93
2022-10-09T00:17:03.314Z,11.89
2022-10-09T00:18:03.215Z,11.78
2022-10-09T00:19:03.222Z,11.78
2022-10-09T00:20:03.199Z,11.78
2022-10-09T00:21:03.183Z,11.80
2022-10-09T00:22:03.194Z,11.85
2022-10-09T00:23:03.165Z,11.77
2022-10-09T00:24:03.189Z,11.78
2022-10-09T00:25:03.140Z,11.86
2022-10-09T00:26:03.129Z,11.83
2022-10-09T00:27:03.116Z,11.85
2022-10-09T00:28:03.204Z,11.85
2022-10-09T00:29:03.106Z,11.85
2022-10-09T00:30:03.082Z,11.86
2022-10-09T00:31:03.187Z,11.86
2022-10-09T00:32:03.061Z,11.85
2022-10-09T00:33:03.052Z,11.83
2022-10-09T00:34:03.055Z,11.80
2022-10-09T00:35:03.029Z,11.86
2022-10-09T00:36:03.018Z,11.83
2022-10-09T00:37:03.006Z,11.77
2022-10-09T00:38:02.995Z,11.89
2022-10-09T00:39:03.001Z,11.93
2022-10-09T00:40:02.990Z,11.86
2022-10-09T00:41:02.961Z,11.83
2022-10-09T00:42:02.949Z,11.83
2022-10-09T00:43:02.988Z,11.83
2022-10-09T00:44:02.945Z,11.86
2022-10-09T00:45:02.915Z,11.82
2022-10-09T00:46:02.974Z,11.87
2022-10-09T00:47:02.896Z,11.89
2022-10-09T00:48:02.884Z,11.83
2022-10-09T00:49:02.913Z,11.80
2022-10-09T00:50:02.864Z,11.77
2022-10-09T00:51:02.851Z,11.78
2022-10-09T00:52:02.840Z,11.71
2022-10-09T00:53:02.828Z,11.72
2022-10-09T00:54:02.834Z,11.67
2022-10-09T00:55:02.802Z,11.71
2022-10-09T00:56:02.812Z,11.72
2022-10-09T00:57:02.783Z,11.67
2022-10-09T00:58:02.774Z,11.71
2022-10-09T00:59:02.771Z,11.75
2022-10-09T01:00:02.751Z,11.68
2022-10-09T01:01:02.807Z,11.61
2022-10-09T01:02:02.848Z,11.70
2022-10-09T01:03:02.719Z,11.61
2022-10-09T01:04:02.796Z,11.59
2022-10-09T01:05:02.698Z,11.54
2022-10-09T01:06:02.682Z,11.53
2022-10-09T01:07:02.680Z,11.49
2022-10-09T01:08:02.715Z,11.49
2022-10-09T01:09:02.669Z,11.46
2022-10-09T01:10:02.641Z,11.53
2022-10-09T01:11:02.631Z,11.44
2022-10-09T01:12:02.638Z,11.56
2022-10-09T01:13:02.611Z,11.53
2022-10-09T01:14:02.607Z,11.46
2022-10-09T01:15:02.584Z,11.53
2022-10-09T01:16:02.586Z,11.47
2022-10-09T01:17:02.582Z,11.47
2022-10-09T01:18:02.550Z,11.46
2022-10-09T01:19:02.553Z,11.43
2022-10-09T01:20:02.526Z,11.50
2022-10-09T01:21:02.520Z,11.43
2022-10-09T01:22:02.507Z,11.39
2022-10-09T01:23:02.497Z,11.46
2022-10-09T01:24:02.506Z,11.49
2022-10-09T01:25:02.474Z,11.38
2022-10-09T01:26:02.467Z,11.36
2022-10-09T01:27:02.453Z,11.41
2022-10-09T01:28:02.524Z,11.34
2022-10-09T01:29:02.442Z,11.29
2022-10-09T01:30:02.420Z,11.28
2022-10-09T01:31:02.457Z,11.28
2022-10-09T01:32:02.391Z,11.32
2022-10-09T01:33:02.387Z,11.31
2022-10-09T01:34:02.386Z,11.34
2022-10-09T01:35:02.361Z,11.27
2022-10-09T01:36:02.347Z,11.27
2022-10-09T01:37:02.340Z,11.24
2022-10-09T01:38:02.327Z,11.25
2022-10-09T01:39:02.356Z,11.28
2022-10-09T01:40:02.305Z,11.27
2022-10-09T01:41:02.295Z,11.32
2022-10-09T01:42:02.313Z,11.29
2022-10-09T01:43:02.298Z,11.25
2022-10-09T01:44:02.290Z,11.28
2022-10-09T01:45:02.252Z,11.31
2022-10-09T01:46:02.289Z,11.34
2022-10-09T01:47:02.252Z,11.27
2022-10-09T01:48:02.216Z,11.28
2022-10-09T01:49:02.220Z,11.35
2022-10-09T01:50:02.193Z,11.31
2022-10-09T01:51:02.186Z,11.29
2022-10-09T01:52:02.172Z,11.28
2022-10-09T01:53:02.166Z,11.31
2022-10-09T01:54:02.167Z,11.19
2022-10-09T01:55:02.144Z,11.32
2022-10-09T01:56:02.129Z,11.31
2022-10-09T01:57:02.122Z,11.32
2022-10-09T01:58:02.105Z,11.34
2022-10-09T01:59:02.109Z,11.31
2022-10-09T02:00:10.104Z,11.27
2022-10-09T02:01:02.068Z,11.19
2022-10-09T02:02:02.154Z,11.27
2022-10-09T02:03:02.092Z,11.24
2022-10-09T02:04:02.045Z,11.29
2022-10-09T02:05:02.025Z,11.28
2022-10-09T02:06:02.018Z,11.32
2022-10-09T02:07:02.016Z,11.29
2022-10-09T02:08:01.989Z,11.28
2022-10-09T02:09:01.998Z,11.32
2022-10-09T02:10:01.971Z,11.28
2022-10-09T02:11:01.959Z,11.24
2022-10-09T02:12:01.946Z,11.24
2022-10-09T02:13:01.935Z,11.20
2022-10-09T02:14:01.932Z,11.13
2022-10-09T02:15:01.912Z,11.21
2022-10-09T02:16:02.127Z,11.28
2022-10-09T02:17:01.891Z,11.20
2022-10-09T02:18:01.879Z,11.25
2022-10-09T02:19:01.881Z,11.21
2022-10-09T02:20:01.857Z,11.19
2022-10-09T02:21:01.852Z,11.14
2022-10-09T02:22:01.833Z,11.17
2022-10-09T02:23:01.823Z,11.13
2022-10-09T02:24:01.823Z,11.14
2022-10-09T02:25:01.802Z,11.16
2022-10-09T02:26:01.789Z,11.17
2022-10-09T02:27:01.789Z,11.16
2022-10-09T02:28:01.906Z,11.13
2022-10-09T02:29:01.773Z,11.17
2022-10-09T02:30:01.746Z,11.20
2022-10-09T02:31:01.773Z,11.16
2022-10-09T02:32:01.743Z,11.11
2022-10-09T02:33:01.757Z,11.03
2022-10-09T02:34:01.715Z,11.03
2022-10-09T02:35:01.693Z,11.03
2022-10-09T02:36:01.681Z,11.06
2022-10-09T02:37:01.672Z,11.02
2022-10-09T02:38:01.659Z,11.06
2022-10-09T02:39:01.658Z,11.10
2022-10-09T02:40:01.638Z,11.03
2022-10-09T02:41:01.631Z,10.95
2022-10-09T02:42:01.613Z,10.96
2022-10-09T02:43:01.604Z,10.92
2022-10-09T02:44:01.606Z,10.96
2022-10-09T02:45:01.583Z,10.96
2022-10-09T02:46:01.619Z,10.91
2022-10-09T02:47:01.559Z,10.91
2022-10-09T02:48:01.565Z,10.91
2022-10-09T02:49:01.550Z,10.94
2022-10-09T02:50:01.527Z,10.94
2022-10-09T02:51:01.551Z,10.92
2022-10-09T02:52:01.507Z,10.96
2022-10-09T02:53:01.495Z,10.98
2022-10-09T02:54:01.495Z,10.91
2022-10-09T02:55:01.472Z,10.88
2022-10-09T02:56:01.462Z,10.88
2022-10-09T02:57:01.450Z,11.02
2022-10-09T02:58:01.442Z,10.88
2022-10-09T02:59:01.438Z,10.94
2022-10-09T03:00:01.435Z,10.81
2022-10-09T03:01:01.407Z,10.86
2022-10-09T03:02:01.583Z,10.92
2022-10-09T03:03:01.423Z,10.78
2022-10-09T03:04:01.397Z,10.83
2022-10-09T03:05:01.363Z,10.83
2022-10-09T03:06:01.350Z,10.89
2022-10-09T03:07:01.342Z,10.89
2022-10-09T03:08:01.329Z,10.78
2022-10-09T03:09:01.326Z,10.76
2022-10-09T03:10:01.307Z,10.84
2022-10-09T03:11:01.299Z,10.76
2022-10-09T03:12:01.285Z,10.80
2022-10-09T03:13:01.277Z,10.80
2022-10-09T03:14:01.276Z,10.78
2022-10-09T03:15:01.254Z,10.73
2022-10-09T03:16:01.296Z,10.76
2022-10-09T03:17:01.234Z,10.74
2022-10-09T03:18:01.219Z,10.76
2022-10-09T03:19:01.222Z,10.83
2022-10-09T03:20:01.216Z,10.73
2022-10-09T03:21:01.188Z,10.71
2022-10-09T03:22:01.175Z,10.71
2022-10-09T03:23:01.166Z,10.74
2022-10-09T03:24:01.193Z,10.74
2022-10-09T03:25:01.149Z,10.70
2022-10-09T03:26:01.133Z,10.73
2022-10-09T03:27:01.123Z,10.71
2022-10-09T03:28:01.110Z,10.68
2022-10-09T03:29:01.115Z,10.70
2022-10-09T03:30:01.114Z,10.71
2022-10-09T03:31:01.144Z,10.66
2022-10-09T03:32:01.117Z,10.73
2022-10-09T03:33:01.057Z,10.63
2022-10-09T03:34:01.067Z,10.74
2022-10-09T03:35:01.037Z,10.73
2022-10-09T03:36:01.108Z,10.66
2022-10-09T03:37:01.018Z,10.70
2022-10-09T03:38:01.004Z,10.65
2022-10-09T03:39:01.003Z,10.60
2022-10-09T03:40:00.980Z,10.58
2022-10-09T03:41:00.977Z,10.62
2022-10-09T03:42:00.958Z,10.59
2022-10-09T03:43:00.949Z,10.65
2022-10-09T03:44:00.947Z,10.60
2022-10-09T03:45:00.929Z,10.63
2022-10-09T03:46:01.264Z,10.70
2022-10-09T03:47:00.973Z,10.62
2022-10-09T03:48:00.895Z,10.68
2022-10-09T03:49:00.894Z,10.66
2022-10-09T03:50:00.873Z,10.65
2022-10-09T03:51:00.863Z,10.63
2022-10-09T03:52:00.871Z,10.65
2022-10-09T03:53:00.843Z,10.66
2022-10-09T03:54:00.842Z,10.58
2022-10-09T03:55:00.821Z,10.52
2022-10-09T03:56:00.809Z,10.53
2022-10-09T03:57:00.798Z,10.56
2022-10-09T03:58:00.785Z,10.53
2022-10-09T03:59:00.789Z,10.56
2022-10-09T04:00:00.764Z,10.56
2022-10-09T04:01:00.851Z,10.55
2022-10-09T04:02:00.743Z,10.55
2022-10-09T04:03:00.823Z,10.58
2022-10-09T04:04:00.730Z,10.52
2022-10-09T04:05:00.727Z,10.53
2022-10-09T04:06:00.701Z,10.60
2022-10-09T04:07:00.693Z,10.53
2022-10-09T04:08:00.695Z,10.52
2022-10-09T04:09:00.685Z,10.53
2022-10-09T04:10:00.657Z,10.52
2022-10-09T04:11:00.652Z,10.52
2022-10-09T04:12:00.635Z,10.56
2022-10-09T04:13:00.632Z,10.56
2022-10-09T04:14:00.625Z,10.40
2022-10-09T04:15:00.605Z,10.46
2022-10-09T04:16:00.652Z,10.40
2022-10-09T04:17:00.583Z,10.39
2022-10-09T04:18:00.571Z,10.42
2022-10-09T04:19:00.572Z,10.39
2022-10-09T04:20:00.550Z,10.34
2022-10-09T04:21:00.542Z,10.43
2022-10-09T04:22:00.527Z,10.40
2022-10-09T04:23:00.519Z,10.42
2022-10-09T04:24:00.533Z,10.39
2022-10-09T04:25:00.498Z,10.42
2022-10-09T04:26:00.483Z,10.39
2022-10-09T04:27:00.478Z,10.37
2022-10-09T04:28:00.466Z,10.43
2022-10-09T04:29:00.461Z,10.42
2022-10-09T04:30:00.440Z,10.52
2022-10-09T04:31:00.431Z,10.44
2022-10-09T04:32:00.540Z,10.47
2022-10-09T04:33:00.412Z,10.40
2022-10-09T04:34:00.415Z,10.44
2022-10-09T04:35:00.397Z,10.47
2022-10-09T04:36:00.381Z,10.40
2022-10-09T04:37:00.367Z,10.37
2022-10-09T04:38:00.356Z,10.39
2022-10-09T04:39:00.380Z,10.37
2022-10-09T04:40:00.416Z,10.34
2022-10-09T04:41:00.325Z,10.33
2022-10-09T04:42:00.317Z,10.33
2022-10-09T04:43:00.306Z,10.37
2022-10-09T04:44:00.303Z,10.22
2022-10-09T04:45:00.280Z,10.26
2022-10-09T04:46:00.366Z,10.32
2022-10-09T04:47:00.261Z,10.32
2022-10-09T04:48:00.256Z,10.30
2022-10-09T04:49:00.246Z,10.30
2022-10-09T04:50:00.232Z,10.32
2022-10-09T04:51:00.237Z,10.19
2022-10-09T04:52:00.203Z,10.17
2022-10-09T04:53:00.194Z,10.25
2022-10-09T04:54:00.865Z,10.32
2022-10-09T04:55:00.176Z,10.21
2022-10-09T04:56:00.295Z,10.30
2022-10-09T04:57:00.150Z,10.22
2022-10-09T04:58:00.138Z,10.25
2022-10-09T04:59:00.146Z,10.26
2022-10-09T05:00:00.118Z,10.26
2022-10-09T05:01:00.180Z,10.15
2022-10-09T05:02:00.147Z,10.24
2022-10-09T05:03:00.084Z,10.22
2022-10-09T05:04:00.100Z,10.24
2022-10-09T05:05:00.065Z,10.30
2022-10-09T05:06:00.052Z,10.25
2022-10-09T05:07:00.041Z,10.30
2022-10-09T05:08:00.033Z,10.25
2022-10-09T05:09:00.030Z,10.22
2022-10-09T05:10:00.009Z,10.24
2022-10-09T05:11:00.001Z,10.21
2022-10-09T05:12:00.007Z,10.21
2022-10-09T05:13:00.034Z,10.25
2022-10-09T05:13:59.974Z,10.24
2022-10-09T05:14:59.955Z,10.21
2022-10-09T05:15:59.962Z,10.25
2022-10-09T05:17:13.691Z,10.19
2022-10-09T05:18:00.932Z,10.19
2022-10-09T05:18:59.910Z,10.14
2022-10-09T05:19:59.911Z,10.17
2022-10-09T05:20:59.888Z,10.09
2022-10-09T05:21:59.878Z,10.12
2022-10-09T05:22:59.866Z,10.03
2022-10-09T05:23:59.882Z,10.14
2022-10-09T05:24:59.843Z,9.99
2022-10-09T05:25:59.834Z,10.06
2022-10-09T05:26:59.821Z,10.04
2022-10-09T05:27:59.830Z,10.04
2022-10-09T05:28:59.801Z,10.03
2022-10-09T05:29:59.801Z,10.01
2022-10-09T05:30:59.780Z,10.10
2022-10-09T05:31:59.830Z,10.04
2022-10-09T05:32:59.766Z,10.07
2022-10-09T05:33:59.750Z,10.10
2022-10-09T05:34:59.746Z,10.06
2022-10-09T05:35:59.726Z,10.04
2022-10-09T05:36:59.714Z,10.10
2022-10-09T05:37:59.707Z,10.12
2022-10-09T05:38:59.698Z,10.04
2022-10-09T05:39:59.693Z,10.07
2022-10-09T05:40:59.671Z,10.07
2022-10-09T05:41:59.661Z,10.19
2022-10-09T05:42:59.652Z,10.10
2022-10-09T05:43:59.668Z,10.22
2022-10-09T05:44:59.631Z,10.17
2022-10-09T05:45:59.690Z,10.15
2022-10-09T05:46:59.606Z,10.15
2022-10-09T05:47:59.601Z,10.30
2022-10-09T05:48:59.596Z,10.30
2022-10-09T05:49:59.574Z,10.39
2022-10-09T05:50:59.562Z,10.32
2022-10-09T05:51:59.556Z,10.40
2022-10-09T05:52:59.547Z,10.33
2022-10-09T05:53:59.542Z,10.42
2022-10-09T05:54:59.532Z,10.37
2022-10-09T05:56:03.539Z,10.53
2022-10-09T05:56:59.498Z,10.53
2022-10-09T05:57:59.488Z,10.51
2022-10-09T05:58:59.489Z,10.65
2022-10-09T05:59:59.487Z,10.65
2022-10-09T06:00:59.534Z,10.81
2022-10-09T06:01:59.502Z,10.76
2022-10-09T06:02:59.463Z,10.81
2022-10-09T06:03:59.436Z,10.96
2022-10-09T06:04:59.412Z,10.91
2022-10-09T06:05:59.403Z,11.09
2022-10-09T06:06:59.389Z,11.09
2022-10-09T06:07:59.379Z,11.28
2022-10-09T06:08:59.381Z,11.27
2022-10-09T06:09:59.356Z,11.32
2022-10-09T06:10:59.343Z,11.53
2022-10-09T06:11:59.339Z,11.57
2022-10-09T06:12:59.321Z,11.77
2022-10-09T06:13:59.326Z,11.90
2022-10-09T06:14:59.301Z,12.08
2022-10-09T06:15:59.306Z,12.31
2022-10-09T06:16:59.383Z,12.48
2022-10-09T06:17:59.267Z,12.69
2022-10-09T06:18:59.268Z,13.00
2022-10-09T06:19:59.247Z,13.22
2022-10-09T06:20:59.233Z,13.58
2022-10-09T06:21:59.225Z,13.69
2022-10-09T06:22:59.215Z,13.89
2022-10-09T06:23:59.219Z,14.07
2022-10-09T06:24:59.192Z,14.19
2022-10-09T06:25:59.183Z,14.42
2022-10-09T06:26:59.171Z,14.62
2022-10-09T06:27:59.231Z,14.74
2022-10-09T06:28:59.156Z,15.02
2022-10-09T06:29:59.137Z,15.21
2022-10-09T06:30:59.214Z,15.38
2022-10-09T06:31:59.134Z,15.64
2022-10-09T06:32:59.102Z,15.70
2022-10-09T06:33:59.108Z,16.00
2022-10-09T06:34:59.084Z,16.18
2022-10-09T06:36:07.082Z,16.31
2022-10-09T06:37:00.069Z,16.55
2022-10-09T06:37:59.059Z,16.74
2022-10-09T06:38:59.062Z,17.03
2022-10-09T06:39:59.028Z,17.06
2022-10-09T06:40:59.019Z,17.20
2022-10-09T06:41:59.007Z,17.46
2022-10-09T06:42:58.995Z,17.59
2022-10-09T06:43:58.990Z,17.62
2022-10-09T06:44:58.973Z,17.76
2022-10-09T06:45:59.003Z,17.91
2022-10-09T06:46:58.950Z,18.12
2022-10-09T06:47:58.957Z,18.31
2022-10-09T06:48:58.937Z,18.46
2022-10-09T06:49:58.920Z,18.52
2022-10-09T06:50:58.907Z,18.64
2022-10-09T06:51:58.898Z,18.92
2022-10-09T06:52:58.885Z,18.95
2022-10-09T06:53:58.903Z,19.14
2022-10-09T06:54:58.864Z,19.31
2022-10-09T06:55:58.854Z,19.02
2022-10-09T06:56:58.849Z,19.15
2022-10-09T06:57:58.836Z,19.20
2022-10-09T06:58:58.826Z,19.28
2022-10-09T06:59:58.807Z,19.40
2022-10-09T07:00:58.795Z,19.54
2022-10-09T07:01:58.939Z,19.70
2022-10-09T07:02:58.873Z,19.86
2022-10-09T07:03:58.810Z,19.87
2022-10-09T07:04:58.752Z,20.09
2022-10-09T07:05:58.753Z,20.08
2022-10-09T07:06:58.737Z,20.13
2022-10-09T07:07:58.720Z,20.25
2022-10-09T07:08:58.722Z,20.31
2022-10-09T07:09:58.699Z,20.31
2022-10-09T07:10:58.692Z,20.31
2022-10-09T07:11:58.685Z,20.47
2022-10-09T07:12:58.667Z,20.68
2022-10-09T07:13:58.668Z,20.54
2022-10-09T07:14:58.643Z,20.74
2022-10-09T07:16:01.389Z,20.59
2022-10-09T07:16:59.621Z,20.56
2022-10-09T07:17:58.612Z,20.53
2022-10-09T07:18:58.616Z,20.71
2022-10-09T07:19:58.614Z,20.84
2022-10-09T07:20:58.579Z,20.69
2022-10-09T07:21:58.572Z,20.54
2022-10-09T07:22:58.556Z,20.62
2022-10-09T07:23:58.560Z,20.54
2022-10-09T07:24:58.545Z,20.66
2022-10-09T07:25:58.577Z,21.06
2022-10-09T07:26:58.535Z,21.59
2022-10-09T07:27:58.506Z,21.79
2022-10-09T07:28:58.503Z,21.91
2022-10-09T07:29:58.497Z,21.94
2022-10-09T07:30:58.492Z,21.92
2022-10-09T07:31:58.462Z,22.10
2022-10-09T07:32:58.463Z,22.31
2022-10-09T07:33:58.444Z,22.39
2022-10-09T07:34:58.427Z,22.50
2022-10-09T07:35:58.437Z,22.74
2022-10-09T07:36:58.409Z,22.84
2022-10-09T07:37:58.436Z,22.96
2022-10-09T07:38:58.387Z,23.17
2022-10-09T07:39:58.381Z,23.11
2022-10-09T07:40:58.366Z,23.24
2022-10-09T07:41:58.358Z,23.24
2022-10-09T07:42:58.367Z,23.40
2022-10-09T07:43:58.336Z,23.27
2022-10-09T07:44:58.326Z,23.11
2022-10-09T07:45:58.386Z,23.04
2022-10-09T07:46:58.306Z,23.11
2022-10-09T07:47:58.296Z,23.24
2022-10-09T07:48:58.294Z,23.19
2022-10-09T07:49:58.272Z,23.11
2022-10-09T07:50:58.260Z,23.04
2022-10-09T07:51:58.269Z,23.02
2022-10-09T07:52:58.245Z,23.22
2022-10-09T07:53:58.242Z,23.26
2022-10-09T07:54:58.218Z,23.46
2022-10-09T07:55:58.228Z,23.67
2022-10-09T07:56:58.197Z,23.86
2022-10-09T07:57:58.193Z,23.97
2022-10-09T07:58:58.186Z,24.17
2022-10-09T08:00:06.256Z,24.32
2022-10-09T08:00:58.158Z,24.49
2022-10-09T08:01:58.166Z,24.50
2022-10-09T08:02:58.187Z,24.47
2022-10-09T08:03:58.145Z,24.79
2022-10-09T08:04:58.117Z,24.83
2022-10-09T08:05:58.107Z,24.79
2022-10-09T08:06:58.096Z,24.60
2022-10-09T08:07:58.101Z,24.56
2022-10-09T08:08:58.086Z,24.41
2022-10-09T08:09:58.066Z,24.34
2022-10-09T08:10:58.054Z,24.10
2022-10-09T08:11:58.045Z,24.05
2022-10-09T08:12:58.038Z,24.01
2022-10-09T08:13:58.055Z,24.01
2022-10-09T08:14:58.015Z,23.90
2022-10-09T08:15:58.060Z,23.89
2022-10-09T08:16:57.990Z,23.76
2022-10-09T08:17:57.983Z,23.23
2022-10-09T08:18:57.985Z,23.31
2022-10-09T08:19:57.975Z,23.24
2022-10-09T08:20:57.952Z,23.27
2022-10-09T08:22:01.310Z,23.20
2022-10-09T08:22:58.927Z,22.86
2022-10-09T08:23:57.946Z,22.78
2022-10-09T08:24:57.941Z,22.64
2022-10-09T08:25:57.915Z,22.34
2022-10-09T08:26:57.889Z,22.22
2022-10-09T08:27:57.877Z,21.98
2022-10-09T08:28:57.877Z,21.95
2022-10-09T08:29:57.861Z,21.79
2022-10-09T08:30:57.909Z,21.64
2022-10-09T08:31:57.850Z,21.57
2022-10-09T08:32:57.828Z,21.53
2022-10-09T08:33:57.854Z,21.53
2022-10-09T08:34:57.861Z,21.30
2022-10-09T08:35:57.794Z,21.24
2022-10-09T08:36:57.779Z,21.41
2022-10-09T08:37:57.808Z,21.57
2022-10-09T08:38:57.771Z,21.71
2022-10-09T08:39:57.768Z,21.90
2022-10-09T08:40:58.404Z,21.98
2022-10-09T08:41:57.736Z,21.98
2022-10-09T08:42:57.717Z,21.91
2022-10-09T08:43:57.749Z,21.91
2022-10-09T08:44:57.790Z,21.90
2022-10-09T08:45:57.720Z,21.76
2022-10-09T08:46:57.677Z,21.79
2022-10-09T08:47:57.703Z,21.71
2022-10-09T08:48:57.652Z,21.60
2022-10-09T08:49:57.645Z,21.50
2022-10-09T08:50:57.633Z,21.27
2022-10-09T08:51:57.625Z,21.16
2022-10-09T08:52:57.719Z,21.16
2022-10-09T08:53:57.600Z,21.23
2022-10-09T08:54:57.671Z,21.32
2022-10-09T08:55:57.595Z,21.56
2022-10-09T08:56:57.568Z,21.51
2022-10-09T08:57:57.559Z,21.67
2022-10-09T08:58:57.559Z,21.67
2022-10-09T08:59:57.540Z,21.85
2022-10-09T09:00:57.529Z,22.17
2022-10-09T09:01:57.543Z,22.31
2022-10-09T09:02:57.528Z,22.46
2022-10-09T09:03:57.507Z,22.65
2022-10-09T09:04:57.509Z,22.75
2022-10-09T09:05:57.473Z,22.93
2022-10-09T09:06:57.461Z,23.15
2022-10-09T09:07:57.453Z,23.11
2022-10-09T09:08:57.452Z,23.11
2022-10-09T09:09:57.431Z,23.19
2022-10-09T09:10:57.420Z,23.14
2022-10-09T09:11:57.427Z,23.42
2022-10-09T09:12:57.411Z,23.27
2022-10-09T09:13:57.402Z,23.29
2022-10-09T09:14:57.396Z,23.43
2022-10-09T09:15:57.422Z,23.57
2022-10-09T09:16:57.356Z,23.61
2022-10-09T09:17:57.345Z,23.75
2022-10-09T09:18:57.355Z,23.92
2022-10-09T09:19:57.330Z,24.22
2022-10-09T09:20:57.316Z,24.45
2022-10-09T09:21:57.306Z,24.45
2022-10-09T09:22:57.293Z,24.24
2022-10-09T09:23:57.291Z,24.24
2022-10-09T09:24:57.285Z,24.29
2022-10-09T09:25:57.261Z,24.34
2022-10-09T09:26:57.251Z,24.88
2022-10-09T09:27:57.256Z,25.39
2022-10-09T09:28:57.336Z,25.68
2022-10-09T09:29:57.220Z,25.86
2022-10-09T09:30:57.298Z,26.04
2022-10-09T09:31:57.255Z,26.25
2022-10-09T09:32:57.191Z,26.44
2022-10-09T09:33:57.191Z,26.49
2022-10-09T09:34:57.172Z,26.62
2022-10-09T09:35:57.159Z,26.64
2022-10-09T09:36:57.150Z,26.11
2022-10-09T09:37:57.144Z,26.29
2022-10-09T09:40:58.107Z,26.80
2022-10-09T09:41:57.096Z,27.01
2022-10-09T09:42:57.098Z,26.86
2022-10-09T09:43:57.116Z,26.95
2022-10-09T09:44:57.068Z,27.04
2022-10-09T09:45:57.055Z,27.02
2022-10-09T09:46:57.142Z,27.23
2022-10-09T09:47:57.039Z,27.10
2022-10-09T09:48:57.040Z,26.98
2022-10-09T09:49:57.020Z,26.67
2022-10-09T09:51:16.034Z,26.43
2022-10-09T09:51:57.995Z,26.31
2022-10-09T09:52:56.988Z,26.39
2022-10-09T09:53:56.996Z,26.57
2022-10-09T09:54:56.972Z,26.96
2022-10-09T09:55:56.960Z,27.16
2022-10-09T09:57:17.108Z,27.29
2022-10-09T09:57:57.937Z,26.89
2022-10-09T09:58:56.944Z,26.91
2022-10-09T09:59:56.936Z,27.01
2022-10-09T10:00:56.972Z,27.01
2022-10-09T10:01:56.938Z,27.14
2022-10-09T10:02:56.906Z,27.36
2022-10-09T10:03:56.888Z,27.47
2022-10-09T10:04:56.873Z,27.48
2022-10-09T10:05:56.870Z,27.11
2022-10-09T10:06:56.868Z,27.02
2022-10-09T10:07:56.844Z,27.21
2022-10-09T10:08:56.842Z,27.20
2022-10-09T10:09:56.825Z,26.96
2022-10-09T10:10:56.814Z,27.04
2022-10-09T10:11:56.805Z,27.19
2022-10-09T10:12:56.794Z,27.32
2022-10-09T10:13:56.794Z,26.96
2022-10-09T10:14:56.783Z,26.92
2022-10-09T10:15:56.787Z,26.81
2022-10-09T10:16:56.776Z,26.76
2022-10-09T10:17:56.745Z,26.77
2022-10-09T10:18:56.752Z,26.67
2022-10-09T10:19:56.727Z,26.32
2022-10-09T10:20:56.719Z,26.04
2022-10-09T10:21:56.706Z,25.52
2022-10-09T10:22:56.704Z,25.13
2022-10-09T10:23:56.777Z,24.07
2022-10-09T10:24:56.681Z,23.60
2022-10-09T10:25:56.668Z,22.99
2022-10-09T10:26:56.663Z,22.64
2022-10-09T10:27:56.649Z,22.35
2022-10-09T10:28:56.655Z,22.19
2022-10-09T10:29:56.629Z,21.92
2022-10-09T10:30:56.620Z,21.56
2022-10-09T10:31:56.623Z,21.13
2022-10-09T10:32:56.600Z,20.89
2022-10-09T10:33:56.599Z,20.58
2022-10-09T10:34:56.578Z,20.33
2022-10-09T10:35:56.587Z,20.28
2022-10-09T10:37:01.010Z,20.13
2022-10-09T10:37:57.546Z,19.93
2022-10-09T10:38:56.550Z,19.86
2022-10-09T10:39:56.525Z,19.72
2022-10-09T10:40:56.524Z,19.46
2022-10-09T10:41:56.504Z,19.38
2022-10-09T10:42:59.218Z,19.13
2022-10-09T10:43:56.494Z,18.95
2022-10-09T10:44:56.473Z,18.90
2022-10-09T10:45:56.460Z,18.86
2022-10-09T10:46:56.498Z,18.91
2022-10-09T10:47:56.456Z,18.84
2022-10-09T10:48:56.441Z,18.87
2022-10-09T10:49:56.417Z,18.82
2022-10-09T10:50:56.408Z,18.90
2022-10-09T10:51:56.396Z,18.77
2022-10-09T10:52:56.528Z,18.67
2022-10-09T10:53:56.386Z,18.58
2022-10-09T10:54:56.367Z,18.59
2022-10-09T10:55:57.715Z,18.57
2022-10-09T10:56:56.340Z,18.59
2022-10-09T10:57:56.329Z,18.49
2022-10-09T10:58:56.335Z,18.54
2022-10-09T10:59:56.307Z,18.47
2022-10-09T11:00:56.339Z,18.39
2022-10-09T11:01:56.321Z,18.24
2022-10-09T11:02:56.741Z,18.29
2022-10-09T11:03:56.288Z,18.18
2022-10-09T11:04:56.256Z,18.15
2022-10-09T11:05:56.244Z,18.17
2022-10-09T11:06:56.237Z,18.13
2022-10-09T11:07:59.928Z,18.17
2022-10-09T11:08:56.238Z,18.07
2022-10-09T11:09:56.201Z,18.18
2022-10-09T11:10:56.192Z,18.12
2022-10-09T11:11:56.178Z,18.12
2022-10-09T11:12:56.170Z,18.07
2022-10-09T11:13:56.167Z,18.15
2022-10-09T11:14:56.147Z,18.07
2022-10-09T11:15:56.177Z,18.17
2022-10-09T11:16:56.126Z,18.13
2022-10-09T11:17:56.113Z,18.17
2022-10-09T11:18:56.115Z,18.25
2022-10-09T11:19:56.117Z,18.27
2022-10-09T11:20:56.081Z,18.12
2022-10-09T11:21:56.072Z,18.17
2022-10-09T11:22:56.060Z,18.07
2022-10-09T11:23:56.055Z,18.13
2022-10-09T11:24:56.039Z,18.07
2022-10-09T11:25:56.030Z,18.02
2022-10-09T11:26:59.597Z,17.78
2022-10-09T11:27:57.002Z,17.55
2022-10-09T11:28:56.037Z,17.44
2022-10-09T11:29:55.982Z,17.38
2022-10-09T11:30:55.972Z,17.29
2022-10-09T11:31:56.050Z,17.30
2022-10-09T11:32:55.977Z,17.30
2022-10-09T11:33:55.957Z,17.33
2022-10-09T11:34:55.930Z,17.32
2022-10-09T11:35:55.934Z,17.40
2022-10-09T11:36:55.909Z,17.48
2022-10-09T11:37:55.894Z,17.51
2022-10-09T11:38:55.894Z,17.48
2022-10-09T11:39:55.872Z,17.48
2022-10-09T11:40:55.862Z,17.57
2022-10-09T11:41:55.851Z,17.54
2022-10-09T11:42:55.841Z,17.66
2022-10-09T11:43:55.837Z,17.64
2022-10-09T11:44:55.831Z,17.62
2022-10-09T11:45:55.881Z,17.59
2022-10-09T11:46:56.941Z,17.64
2022-10-09T11:47:55.788Z,17.63
2022-10-09T11:48:55.791Z,17.69
2022-10-09T11:49:55.762Z,17.57
2022-10-09T11:50:55.753Z,17.62
2022-10-09T11:51:55.757Z,17.69
2022-10-09T11:52:55.746Z,17.64
2022-10-09T11:53:55.733Z,17.67
2022-10-09T11:54:55.712Z,17.78
2022-10-09T11:55:55.698Z,17.73
2022-10-09T11:56:55.697Z,17.74
2022-10-09T11:57:55.696Z,17.74
2022-10-09T11:58:55.689Z,17.78
2022-10-09T11:59:55.653Z,17.69
2022-10-09T12:00:55.760Z,17.69
2022-10-09T12:01:55.688Z,17.59
2022-10-09T12:02:55.632Z,17.62
2022-10-09T12:03:58.734Z,17.59
2022-10-09T12:04:55.981Z,17.48
2022-10-09T12:05:55.586Z,17.48
2022-10-09T12:06:55.577Z,17.48
2022-10-09T12:07:55.591Z,17.50
2022-10-09T12:08:55.555Z,17.43
2022-10-09T12:09:55.542Z,17.55
2022-10-09T12:10:55.534Z,17.55
2022-10-09T12:11:55.520Z,17.44
2022-10-09T12:12:55.521Z,17.41
2022-10-09T12:13:55.500Z,17.43
2022-10-09T12:14:55.489Z,17.44
2022-10-09T12:15:55.479Z,17.41
2022-10-09T12:16:55.518Z,17.46
2022-10-09T12:17:55.472Z,17.33
2022-10-09T12:18:55.445Z,17.40
2022-10-09T12:20:00.760Z,17.40
2022-10-09T12:20:56.428Z,17.43
2022-10-09T12:21:55.411Z,17.30
2022-10-09T12:23:14.289Z,17.40
2022-10-09T12:23:56.405Z,17.43
2022-10-09T12:24:55.379Z,17.47
2022-10-09T12:25:55.370Z,17.47
2022-10-09T12:26:55.356Z,17.50
2022-10-09T12:27:55.354Z,17.46
2022-10-09T12:28:55.337Z,17.48
2022-10-09T12:29:55.322Z,17.36
2022-10-09T12:30:55.345Z,17.43
2022-10-09T12:31:55.305Z,17.33
2022-10-09T12:32:55.293Z,17.33
2022-10-09T12:33:55.290Z,17.33
2022-10-09T12:34:55.269Z,17.36
2022-10-09T12:35:55.262Z,17.40
2022-10-09T12:36:55.251Z,17.41
2022-10-09T12:37:55.234Z,17.26
2022-10-09T12:38:55.233Z,17.25
2022-10-09T12:39:55.230Z,17.22
2022-10-09T12:40:55.204Z,17.20
2022-10-09T12:41:55.191Z,17.13
2022-10-09T12:42:55.185Z,17.18
2022-10-09T12:43:55.181Z,17.29
2022-10-09T12:44:55.160Z,17.30
2022-10-09T12:45:55.237Z,17.33
2022-10-09T12:46:55.138Z,17.32
2022-10-09T12:47:55.137Z,17.35
2022-10-09T12:48:55.134Z,17.33
2022-10-09T12:49:55.111Z,17.38
2022-10-09T12:50:55.093Z,17.41
2022-10-09T12:51:56.318Z,17.36
2022-10-09T12:52:55.069Z,17.30
2022-10-09T12:53:55.074Z,17.41